sensor_id;sensor_type;location;lat;lon;timestamp;pressure;altitude;pressure_sealevel;temperature;humidity
46007;BME280;31738;50.188;8.524;2022-10-19T00:02:24;99933.84;;;14.06;98.99
46007;BME280;31738;50.188;8.524;2022-10-19T00:04:53;99929.72;;;13.73;100.00
46007;BME280;31738;50.188;8.524;2022-10-19T00:07:18;99927.88;;;13.84;100.00
46007;BME280;31738;50.188;8.524;2022-10-19T00:09:44;99918.72;;;13.90;99.70
46007;BME280;31738;50.188;8.524;2022-10-19T00:12:10;99920.34;;;13.91;99.72
46007;BME280;31738;50.188;8.524;2022-10-19T00:14:37;99921.44;;;13.90;99.43
46007;BME280;31738;50.188;8.524;2022-10-19T00:17:05;99923.56;;;13.88;99.50
46007;BME280;31738;50.188;8.524;2022-10-19T00:19:33;99918.16;;;13.88;99.41
46007;BME280;31738;50.188;8.524;2022-10-19T00:22:09;99924.09;;;13.85;99.22
46007;BME280;31738;50.188;8.524;2022-10-19T00:24:40;99918.69;;;13.85;99.20
46007;BME280;31738;50.188;8.524;2022-10-19T00:27:25;99921.38;;;13.80;99.03
46007;BME280;31738;50.188;8.524;2022-10-19T00:29:56;99910.59;;;13.80;99.42
46007;BME280;31738;50.188;8.524;2022-10-19T00:32:25;99912.72;;;13.78;99.19
46007;BME280;31738;50.188;8.524;2022-10-19T00:35:02;99915.69;;;13.76;99.43
46007;BME280;31738;50.188;8.524;2022-10-19T00:37:33;99910.03;;;13.73;99.28
46007;BME280;31738;50.188;8.524;2022-10-19T00:40:01;99913.00;;;13.71;99.44
46007;BME280;31738;50.188;8.524;2022-10-19T00:42:34;99908.66;;;13.70;99.58
46007;BME280;31738;50.188;8.524;2022-10-19T00:45:08;99910.56;;;13.70;99.08
46007;BME280;31738;50.188;8.524;2022-10-19T00:47:40;99904.06;;;13.66;99.63
46007;BME280;31738;50.188;8.524;2022-10-19T00:50:07;99908.94;;;13.64;99.51
46007;BME280;31738;50.188;8.524;2022-10-19T00:52:33;99914.59;;;13.62;99.84
46007;BME280;31738;50.188;8.524;2022-10-19T00:54:58;99909.47;;;13.61;99.91
46007;BME280;31738;50.188;8.524;2022-10-19T00:57:27;99908.91;;;13.59;99.70
46007;BME280;31738;50.188;8.524;2022-10-19T00:59:53;99905.13;;;13.55;99.72
46007;BME280;31738;50.188;8.524;2022-10-19T01:02:30;99895.94;;;13.51;100.00
46007;BME280;31738;50.188;8.524;2022-10-19T01:05:12;99897.00;;;13.50;99.63
46007;BME280;31738;50.188;8.524;2022-10-19T01:08:04;99893.19;;;13.46;99.92
46007;BME280;31738;50.188;8.524;2022-10-19T01:16:20;99897.47;;;13.37;99.99
46007;BME280;31738;50.188;8.524;2022-10-19T01:21:57;99880.75;;;13.30;100.00
46007;BME280;31738;50.188;8.524;2022-10-19T01:25:16;99884.19;;;13.20;100.00
46007;BME280;31738;50.188;8.524;2022-10-19T01:34:18;99891.19;;;13.21;100.00
46007;BME280;31738;50.188;8.524;2022-10-19T01:37:23;99883.38;;;13.20;100.00
46007;BME280;31738;50.188;8.524;2022-10-19T01:40:08;99877.75;;;13.26;100.00
46007;BME280;31738;50.188;8.524;2022-10-19T01:42:46;99877.50;;;13.28;99.87
46007;BME280;31738;50.188;8.524;2022-10-19T01:45:46;99893.13;;;13.26;99.43
46007;BME280;31738;50.188;8.524;2022-10-19T01:48:19;99880.72;;;13.25;99.71
46007;BME280;31738;50.188;8.524;2022-10-19T01:51:09;99878.00;;;13.20;99.35
46007;BME280;31738;50.188;8.524;2022-10-19T01:53:46;99875.59;;;13.23;99.49
46007;BME280;31738;50.188;8.524;2022-10-19T01:56:17;99882.84;;;13.23;99.70
46007;BME280;31738;50.188;8.524;2022-10-19T01:58:48;99877.72;;;13.21;99.73
46007;BME280;31738;50.188;8.524;2022-10-19T02:01:19;99878.00;;;13.20;99.59
46007;BME280;31738;50.188;8.524;2022-10-19T02:03:56;99883.91;;;13.17;99.64
46007;BME280;31738;50.188;8.524;2022-10-19T02:06:25;99875.56;;;13.18;99.81
46007;BME280;31738;50.188;8.524;2022-10-19T02:08:52;99876.38;;;13.19;99.84
46007;BME280;31738;50.188;8.524;2022-10-19T02:11:24;99880.16;;;13.18;99.13
46007;BME280;31738;50.188;8.524;2022-10-19T02:13:59;99884.97;;;13.16;99.11
46007;BME280;31738;50.188;8.524;2022-10-19T02:16:34;99882.28;;;13.16;99.26
46007;BME280;31738;50.188;8.524;2022-10-19T02:19:48;99882.25;;;13.06;99.69
46007;BME280;31738;50.188;8.524;2022-10-19T02:22:17;99887.63;;;13.06;99.03
46007;BME280;31738;50.188;8.524;2022-10-19T02:24:42;99882.78;;;13.03;99.43
46007;BME280;31738;50.188;8.524;2022-10-19T02:27:10;99882.50;;;13.04;99.32
46007;BME280;31738;50.188;8.524;2022-10-19T02:30:00;99877.38;;;13.03;99.54
46007;BME280;31738;50.188;8.524;2022-10-19T02:32:28;99872.75;;;12.98;99.74
46007;BME280;31738;50.188;8.524;2022-10-19T02:35:00;99864.44;;;13.00;99.90
46007;BME280;31738;50.188;8.524;2022-10-19T02:37:31;99870.06;;;12.98;99.65
46007;BME280;31738;50.188;8.524;2022-10-19T02:40:07;99859.59;;;13.02;99.55
46007;BME280;31738;50.188;8.524;2022-10-19T02:42:38;99864.75;;;13.08;99.20
46007;BME280;31738;50.188;8.524;2022-10-19T02:45:15;99864.22;;;13.11;99.18
46007;BME280;31738;50.188;8.524;2022-10-19T02:47:55;99857.47;;;13.14;98.60
46007;BME280;31738;50.188;8.524;2022-10-19T02:50:31;99863.47;;;13.21;98.66
46007;BME280;31738;50.188;8.524;2022-10-19T02:53:03;99865.38;;;13.25;98.07
46007;BME280;31738;50.188;8.524;2022-10-19T02:55:32;99871.31;;;13.32;97.91
46007;BME280;31738;50.188;8.524;2022-10-19T02:58:07;99869.19;;;13.34;97.40
46007;BME280;31738;50.188;8.524;2022-10-19T03:00:35;99864.59;;;13.35;97.28
46007;BME280;31738;50.188;8.524;2022-10-19T03:03:01;99868.91;;;13.36;96.60
46007;BME280;31738;50.188;8.524;2022-10-19T03:05:34;99867.84;;;13.37;97.29
46007;BME280;31738;50.188;8.524;2022-10-19T03:08:07;99865.66;;;13.34;96.88
46007;BME280;31738;50.188;8.524;2022-10-19T03:10:37;99864.59;;;13.35;96.71
46007;BME280;31738;50.188;8.524;2022-10-19T03:13:11;99871.06;;;13.34;96.12
46007;BME280;31738;50.188;8.524;2022-10-19T03:15:50;99862.19;;;13.33;96.06
46007;BME280;31738;50.188;8.524;2022-10-19T03:18:16;99875.91;;;13.32;96.17
46007;BME280;31738;50.188;8.524;2022-10-19T03:20:47;99862.16;;;13.28;96.14
46007;BME280;31738;50.188;8.524;2022-10-19T03:23:19;99862.41;;;13.27;96.13
46007;BME280;31738;50.188;8.524;2022-10-19T03:26:15;99868.84;;;13.21;95.85
46007;BME280;31738;50.188;8.524;2022-10-19T03:28:59;99859.91;;;13.15;95.73
46007;BME280;31738;50.188;8.524;2022-10-19T03:31:44;99863.13;;;13.07;95.87
46007;BME280;31738;50.188;8.524;2022-10-19T03:34:21;99863.94;;;13.08;96.01
46007;BME280;31738;50.188;8.524;2022-10-19T03:36:54;99857.19;;;13.05;96.03
46007;BME280;31738;50.188;8.524;2022-10-19T03:39:29;99859.06;;;13.05;96.29
46007;BME280;31738;50.188;8.524;2022-10-19T03:42:10;99856.56;;;12.93;96.20
46007;BME280;31738;50.188;8.524;2022-10-19T03:44:39;99852.47;;;12.91;96.26
46007;BME280;31738;50.188;8.524;2022-10-19T03:47:10;99854.59;;;12.84;97.01
46007;BME280;31738;50.188;8.524;2022-10-19T03:50:11;99841.63;;;12.76;96.69
46007;BME280;31738;50.188;8.524;2022-10-19T03:52:38;99849.69;;;12.76;96.92
46007;BME280;31738;50.188;8.524;2022-10-19T03:55:12;99846.19;;;12.70;96.89
46007;BME280;31738;50.188;8.524;2022-10-19T03:57:50;99850.44;;;12.66;97.66
46007;BME280;31738;50.188;8.524;2022-10-19T04:00:29;99856.06;;;12.60;97.59
46007;BME280;31738;50.188;8.524;2022-10-19T04:02:57;99851.75;;;12.59;97.71
46007;BME280;31738;50.188;8.524;2022-10-19T04:05:30;99851.72;;;12.54;97.76
46007;BME280;31738;50.188;8.524;2022-10-19T04:08:07;99855.44;;;12.48;97.59
46007;BME280;31738;50.188;8.524;2022-10-19T04:10:57;99852.16;;;12.41;98.07
46007;BME280;31738;50.188;8.524;2022-10-19T04:13:29;99847.53;;;12.36;98.02
46007;BME280;31738;50.188;8.524;2022-10-19T04:16:23;99847.47;;;12.26;98.11
46007;BME280;31738;50.188;8.524;2022-10-19T04:18:56;99846.06;;;12.19;98.30
46007;BME280;31738;50.188;8.524;2022-10-19T04:21:47;99842.19;;;12.04;98.81
46007;BME280;31738;50.188;8.524;2022-10-19T04:24:26;99844.88;;;12.04;98.80
46007;BME280;31738;50.188;8.524;2022-10-19T04:27:08;99849.69;;;12.02;98.99
46007;BME280;31738;50.188;8.524;2022-10-19T04:29:50;99848.81;;;11.70;99.90
46007;BME280;31738;50.188;8.524;2022-10-19T04:32:43;99844.66;;;11.84;99.63
46007;BME280;31738;50.188;8.524;2022-10-19T04:35:14;99846.09;;;11.92;99.02
46007;BME280;31738;50.188;8.524;2022-10-19T04:37:49;99846.94;;;11.97;98.87
46007;BME280;31738;50.188;8.524;2022-10-19T04:40:37;99840.47;;;11.93;98.50
46007;BME280;31738;50.188;8.524;2022-10-19T04:43:16;99849.13;;;12.00;98.47
46007;BME280;31738;50.188;8.524;2022-10-19T04:45:46;99848.34;;;12.05;98.21
46007;BME280;31738;50.188;8.524;2022-10-19T04:48:11;99851.09;;;12.10;98.09
46007;BME280;31738;50.188;8.524;2022-10-19T04:50:37;99848.72;;;12.14;97.80
46007;BME280;31738;50.188;8.524;2022-10-19T04:53:18;99854.63;;;12.16;97.74
46007;BME280;31738;50.188;8.524;2022-10-19T04:56:11;99860.56;;;12.18;97.83
46007;BME280;31738;50.188;8.524;2022-10-19T04:59:01;99847.44;;;12.21;97.61
46007;BME280;31738;50.188;8.524;2022-10-19T05:01:29;99859.81;;;12.22;97.31
46007;BME280;31738;50.188;8.524;2022-10-19T05:04:10;99855.25;;;12.23;97.21
46007;BME280;31738;50.188;8.524;2022-10-19T05:06:41;99853.31;;;12.18;97.39
46007;BME280;31738;50.188;8.524;2022-10-19T05:09:09;99856.84;;;12.19;97.32
46007;BME280;31738;50.188;8.524;2022-10-19T05:11:43;99856.53;;;12.15;97.76
46007;BME280;31738;50.188;8.524;2022-10-19T05:14:11;99857.56;;;12.14;97.54
46007;BME280;31738;50.188;8.524;2022-10-19T05:16:37;99857.81;;;12.13;97.73
46007;BME280;31738;50.188;8.524;2022-10-19T05:19:15;99861.03;;;12.09;97.69
46007;BME280;31738;50.188;8.524;2022-10-19T05:22:22;99851.59;;;12.07;97.78
46007;BME280;31738;50.188;8.524;2022-10-19T05:24:58;99862.66;;;12.11;97.85
46007;BME280;31738;50.188;8.524;2022-10-19T05:27:36;99847.31;;;12.11;97.87
46007;BME280;31738;50.188;8.524;2022-10-19T05:30:16;99854.59;;;12.11;97.79
46007;BME280;31738;50.188;8.524;2022-10-19T05:33:10;99848.16;;;12.12;97.46
46007;BME280;31738;50.188;8.524;2022-10-19T05:35:46;99837.19;;;12.18;97.64
46007;BME280;31738;50.188;8.524;2022-10-19T05:38:20;99845.31;;;12.23;97.50
46007;BME280;31738;50.188;8.524;2022-10-19T05:40:49;99834.81;;;12.27;97.22
46007;BME280;31738;50.188;8.524;2022-10-19T05:43:25;99841.84;;;12.28;96.98
46007;BME280;31738;50.188;8.524;2022-10-19T05:45:51;99830.81;;;12.29;97.27
46007;BME280;31738;50.188;8.524;2022-10-19T05:48:19;99835.13;;;12.30;96.81
46007;BME280;31738;50.188;8.524;2022-10-19T05:50:52;99833.50;;;12.29;97.25
46007;BME280;31738;50.188;8.524;2022-10-19T05:53:27;99834.81;;;12.27;97.36
46007;BME280;31738;50.188;8.524;2022-10-19T05:55:53;99840.19;;;12.27;97.31
46007;BME280;31738;50.188;8.524;2022-10-19T05:58:18;99849.66;;;12.29;97.37
46007;BME280;31738;50.188;8.524;2022-10-19T06:00:52;99855.81;;;12.30;96.68
46007;BME280;31738;50.188;8.524;2022-10-19T06:03:27;99844.00;;;12.31;96.85
46007;BME280;31738;50.188;8.524;2022-10-19T06:05:55;99850.50;;;12.35;96.98
46007;BME280;31738;50.188;8.524;2022-10-19T06:08:22;99850.53;;;12.40;96.74
46007;BME280;31738;50.188;8.524;2022-10-19T06:10:49;99844.63;;;12.43;96.71
46007;BME280;31738;50.188;8.524;2022-10-19T06:13:23;99851.06;;;12.42;96.62
46007;BME280;31738;50.188;8.524;2022-10-19T06:15:52;99850.03;;;12.43;96.76
46007;BME280;31738;50.188;8.524;2022-10-19T06:18:17;99845.44;;;12.43;96.75
46007;BME280;31738;50.188;8.524;2022-10-19T06:20:53;99844.63;;;12.43;96.46
46007;BME280;31738;50.188;8.524;2022-10-19T06:23:38;99845.41;;;12.38;97.03
46007;BME280;31738;50.188;8.524;2022-10-19T06:26:12;99852.72;;;12.43;96.99
46007;BME280;31738;50.188;8.524;2022-10-19T06:28:58;99851.06;;;12.42;97.21
46007;BME280;31738;50.188;8.524;2022-10-19T06:31:58;99845.16;;;12.40;97.53
46007;BME280;31738;50.188;8.524;2022-10-19T06:34:30;99847.84;;;12.40;97.86
46007;BME280;31738;50.188;8.524;2022-10-19T06:37:12;99844.09;;;12.41;97.94
46007;BME280;31738;50.188;8.524;2022-10-19T06:39:40;99851.63;;;12.44;97.30
46007;BME280;31738;50.188;8.524;2022-10-19T06:42:09;99854.38;;;12.49;97.26
46007;BME280;31738;50.188;8.524;2022-10-19T06:44:48;99854.16;;;12.55;97.10
46007;BME280;31738;50.188;8.524;2022-10-19T06:50:28;99861.47;;;12.60;97.33
46007;BME280;31738;50.188;8.524;2022-10-19T06:52:59;99867.41;;;12.67;97.34
46007;BME280;31738;50.188;8.524;2022-10-19T06:55:42;99856.69;;;12.72;97.40
46007;BME280;31738;50.188;8.524;2022-10-19T06:58:21;99857.78;;;12.71;97.76
46007;BME280;31738;50.188;8.524;2022-10-19T07:01:10;99867.47;;;12.72;97.88
46007;BME280;31738;50.188;8.524;2022-10-19T07:03:52;99866.94;;;12.75;97.84
46007;BME280;31738;50.188;8.524;2022-10-19T07:06:25;99863.72;;;12.78;97.26
46007;BME280;31738;50.188;8.524;2022-10-19T07:09:18;99859.16;;;12.78;97.29
46007;BME280;31738;50.188;8.524;2022-10-19T07:11:52;99867.78;;;12.80;97.14
46007;BME280;31738;50.188;8.524;2022-10-19T07:14:23;99871.59;;;12.84;97.00
46007;BME280;31738;50.188;8.524;2022-10-19T07:17:22;99872.38;;;12.85;96.55
46007;BME280;31738;50.188;8.524;2022-10-19T07:20:06;99874.53;;;12.88;96.27
46007;BME280;31738;50.188;8.524;2022-10-19T07:22:41;99871.38;;;12.96;96.05
46007;BME280;31738;50.188;8.524;2022-10-19T07:25:31;99877.31;;;12.98;95.79
46007;BME280;31738;50.188;8.524;2022-10-19T07:28:12;99881.63;;;12.99;95.66
46007;BME280;31738;50.188;8.524;2022-10-19T07:30:51;99879.25;;;13.02;95.76
46007;BME280;31738;50.188;8.524;2022-10-19T07:33:21;99877.41;;;13.08;95.42
46007;BME280;31738;50.188;8.524;2022-10-19T07:35:58;99888.19;;;13.13;94.71
46007;BME280;31738;50.188;8.524;2022-10-19T07:38:23;99897.38;;;13.17;94.47
46007;BME280;31738;50.188;8.524;2022-10-19T07:40:59;99895.25;;;13.19;93.98
46007;BME280;31738;50.188;8.524;2022-10-19T07:43:31;99898.53;;;13.26;94.48
46007;BME280;31738;50.188;8.524;2022-10-19T07:46:17;99903.38;;;13.34;94.12
46007;BME280;31738;50.188;8.524;2022-10-19T07:48:54;99901.81;;;13.38;94.11
46007;BME280;31738;50.188;8.524;2022-10-19T07:51:23;99903.19;;;13.45;93.90
46007;BME280;31738;50.188;8.524;2022-10-19T07:54:01;99904.56;;;13.53;93.38
46007;BME280;31738;50.188;8.524;2022-10-19T07:56:36;99909.19;;;13.62;93.54
46007;BME280;31738;50.188;8.524;2022-10-19T07:59:07;99906.53;;;13.72;93.68
46007;BME280;31738;50.188;8.524;2022-10-19T08:01:44;99906.25;;;13.74;93.51
46007;BME280;31738;50.188;8.524;2022-10-19T08:04:15;99908.16;;;13.78;93.21
46007;BME280;31738;50.188;8.524;2022-10-19T08:07:06;99914.38;;;13.79;93.01
46007;BME280;31738;50.188;8.524;2022-10-19T08:09:45;99924.63;;;13.82;92.60
46007;BME280;31738;50.188;8.524;2022-10-19T08:12:21;99923.00;;;13.81;92.11
46007;BME280;31738;50.188;8.524;2022-10-19T08:15:04;99931.63;;;13.83;91.68
46007;BME280;31738;50.188;8.524;2022-10-19T08:17:35;99938.94;;;13.88;91.66
46007;BME280;31738;50.188;8.524;2022-10-19T08:20:06;99934.38;;;13.93;91.21
46007;BME280;31738;50.188;8.524;2022-10-19T08:22:40;99940.81;;;13.92;91.70
46007;BME280;31738;50.188;8.524;2022-10-19T08:25:18;99933.28;;;13.94;92.03
46007;BME280;31738;50.188;8.524;2022-10-19T08:27:55;99928.97;;;13.98;92.15
46007;BME280;31738;50.188;8.524;2022-10-19T08:30:25;99920.09;;;14.03;91.89
46007;BME280;31738;50.188;8.524;2022-10-19T08:33:09;99915.53;;;14.08;91.51
46007;BME280;31738;50.188;8.524;2022-10-19T08:35:39;99927.38;;;14.12;90.81
46007;BME280;31738;50.188;8.524;2022-10-19T08:38:38;99920.94;;;14.18;91.08
46007;BME280;31738;50.188;8.524;2022-10-19T08:47:44;99909.13;;;14.34;91.87
46007;BME280;31738;50.188;8.524;2022-10-19T08:50:26;99916.69;;;14.42;91.28
46007;BME280;31738;50.188;8.524;2022-10-19T08:53:23;99905.88;;;14.47;91.69
46007;BME280;31738;50.188;8.524;2022-10-19T08:56:39;99907.75;;;14.52;91.39
46007;BME280;31738;50.188;8.524;2022-10-19T08:59:41;99909.09;;;14.59;91.56
46007;BME280;31738;50.188;8.524;2022-10-19T09:05:37;99911.53;;;14.71;89.77
46007;BME280;31738;50.188;8.524;2022-10-19T09:08:19;99916.44;;;14.64;90.45
46007;BME280;31738;50.188;8.524;2022-10-19T09:11:03;99924.78;;;14.72;90.26
46007;BME280;31738;50.188;8.524;2022-10-19T09:13:44;99923.69;;;14.78;89.23
46007;BME280;31738;50.188;8.524;2022-10-19T09:16:18;99931.81;;;14.83;89.05
46007;BME280;31738;50.188;8.524;2022-10-19T09:18:55;99919.34;;;14.82;88.80
46007;BME280;31738;50.188;8.524;2022-10-19T09:21:25;99913.41;;;14.85;88.91
46007;BME280;31738;50.188;8.524;2022-10-19T09:27:40;99924.78;;;14.77;88.28
46007;BME280;31738;50.188;8.524;2022-10-19T09:30:19;99928.28;;;14.78;88.21
46007;BME280;31738;50.188;8.524;2022-10-19T09:33:32;99927.47;;;14.67;88.33
46007;BME280;31738;50.188;8.524;2022-10-19T09:36:04;99932.34;;;14.70;87.93
46007;BME280;31738;50.188;8.524;2022-10-19T09:38:49;99931.81;;;14.68;87.58
46007;BME280;31738;50.188;8.524;2022-10-19T09:41:31;99936.41;;;14.68;87.29
46007;BME280;31738;50.188;8.524;2022-10-19T09:44:01;99928.56;;;14.71;87.19
46007;BME280;31738;50.188;8.524;2022-10-19T09:46:43;99936.13;;;14.74;87.19
46007;BME280;31738;50.188;8.524;2022-10-19T09:49:12;99945.81;;;14.85;87.10
46007;BME280;31738;50.188;8.524;2022-10-19T09:51:48;99945.00;;;14.95;87.37
46007;BME280;31738;50.188;8.524;2022-10-19T09:54:45;99931.78;;;14.98;87.40
46007;BME280;31738;50.188;8.524;2022-10-19T09:57:20;99937.16;;;15.08;87.34
46007;BME280;31738;50.188;8.524;2022-10-19T09:59:50;99928.50;;;15.11;87.03
46007;BME280;31738;50.188;8.524;2022-10-19T10:02:50;99927.44;;;15.07;86.88
46007;BME280;31738;50.188;8.524;2022-10-19T10:05:43;99925.84;;;15.06;86.99
46007;BME280;31738;50.188;8.524;2022-10-19T10:08:21;99930.13;;;15.12;86.71
46007;BME280;31738;50.188;8.524;2022-10-19T10:11:10;99929.03;;;15.08;86.41
46007;BME280;31738;50.188;8.524;2022-10-19T10:13:42;99934.44;;;15.13;86.51
46007;BME280;31738;50.188;8.524;2022-10-19T10:16:14;99939.03;;;15.18;86.87
46007;BME280;31738;50.188;8.524;2022-10-19T10:21:47;99934.44;;;15.18;86.39
46007;BME280;31738;50.188;8.524;2022-10-19T10:24:31;99934.19;;;15.25;86.81
46007;BME280;31738;50.188;8.524;2022-10-19T10:27:10;99937.41;;;15.27;86.18
46007;BME280;31738;50.188;8.524;2022-10-19T10:30:05;99926.56;;;15.27;86.10
46007;BME280;31738;50.188;8.524;2022-10-19T10:32:36;99926.28;;;15.33;85.77
46007;BME280;31738;50.188;8.524;2022-10-19T10:35:16;99919.53;;;15.36;85.90
46007;BME280;31738;50.188;8.524;2022-10-19T10:37:49;99928.47;;;15.42;85.35
46007;BME280;31738;50.188;8.524;2022-10-19T10:40:19;99931.72;;;15.44;85.42
46007;BME280;31738;50.188;8.524;2022-10-19T10:43:24;99923.06;;;15.42;84.87
46007;BME280;31738;50.188;8.524;2022-10-19T10:46:06;99920.91;;;15.44;85.42
46007;BME280;31738;50.188;8.524;2022-10-19T10:48:58;99925.75;;;15.47;84.98
46007;BME280;31738;50.188;8.524;2022-10-19T10:51:42;99912.47;;;15.50;84.96
46007;BME280;31738;50.188;8.524;2022-10-19T10:54:28;99910.84;;;15.54;84.48
46007;BME280;31738;50.188;8.524;2022-10-19T10:57:22;99915.44;;;15.59;84.74
46007;BME280;31738;50.188;8.524;2022-10-19T11:00:06;99909.97;;;15.64;85.13
46007;BME280;31738;50.188;8.524;2022-10-19T11:03:11;99907.81;;;15.71;85.27
46007;BME280;31738;50.188;8.524;2022-10-19T11:06:06;99909.69;;;15.70;85.11
46007;BME280;31738;50.188;8.524;2022-10-19T11:09:02;99907.53;;;15.72;84.81
46007;BME280;31738;50.188;8.524;2022-10-19T11:12:02;99900.47;;;15.76;84.05
46007;BME280;31738;50.188;8.524;2022-10-19T11:17:48;99907.47;;;15.82;84.28
46007;BME280;31738;50.188;8.524;2022-10-19T11:20:29;99902.06;;;15.82;84.25
46007;BME280;31738;50.188;8.524;2022-10-19T11:23:21;99889.31;;;15.88;85.04
46007;BME280;31738;50.188;8.524;2022-10-19T11:26:34;99898.50;;;15.87;85.01
46007;BME280;31738;50.188;8.524;2022-10-19T11:32:03;99876.28;;;15.90;85.72
46007;BME280;31738;50.188;8.524;2022-10-19T11:35:04;99870.38;;;15.88;86.31
46007;BME280;31738;50.188;8.524;2022-10-19T11:38:11;99856.88;;;15.83;86.33
46007;BME280;31738;50.188;8.524;2022-10-19T11:40:53;99854.72;;;15.80;86.72
46007;BME280;31738;50.188;8.524;2022-10-19T11:49:15;99843.25;;;15.93;86.60
46007;BME280;31738;50.188;8.524;2022-10-19T11:51:54;99836.22;;;15.97;86.84
46007;BME280;31738;50.188;8.524;2022-10-19T11:57:36;99822.94;;;16.00;86.86
46007;BME280;31738;50.188;8.524;2022-10-19T12:00:30;99809.69;;;15.99;87.32
46007;BME280;31738;50.188;8.524;2022-10-19T12:03:51;99796.19;;;15.94;87.15
46007;BME280;31738;50.188;8.524;2022-10-19T12:09:45;99807.47;;;16.01;87.07
46007;BME280;31738;50.188;8.524;2022-10-19T12:12:40;99797.94;;;16.08;87.94
46007;BME280;31738;50.188;8.524;2022-10-19T12:15:30;99791.41;;;16.14;87.71
46007;BME280;31738;50.188;8.524;2022-10-19T12:24:13;99776.66;;;16.02;87.59
46007;BME280;31738;50.188;8.524;2022-10-19T12:26:54;99788.25;;;16.02;87.65
46007;BME280;31738;50.188;8.524;2022-10-19T12:29:37;99780.41;;;16.01;87.75
46007;BME280;31738;50.188;8.524;2022-10-19T12:32:20;99774.69;;;15.74;88.55
46007;BME280;31738;50.188;8.524;2022-10-19T12:35:24;99770.56;;;15.81;88.15
46007;BME280;31738;50.188;8.524;2022-10-19T12:38:39;99765.72;;;15.78;88.08
46007;BME280;31738;50.188;8.524;2022-10-19T12:41:29;99764.91;;;15.78;88.07
46007;BME280;31738;50.188;8.524;2022-10-19T12:47:10;99753.78;;;15.79;88.60
46007;BME280;31738;50.188;8.524;2022-10-19T12:49:48;99743.22;;;15.83;88.29
46007;BME280;31738;50.188;8.524;2022-10-19T12:52:34;99746.25;;;15.76;88.45
46007;BME280;31738;50.188;8.524;2022-10-19T12:55:22;99741.66;;;15.77;88.67
46007;BME280;31738;50.188;8.524;2022-10-19T12:58:20;99743.59;;;15.71;88.87
46007;BME280;31738;50.188;8.524;2022-10-19T13:01:06;99738.47;;;15.70;88.92
46007;BME280;31738;50.188;8.524;2022-10-19T13:03:37;99724.59;;;15.76;88.62
46007;BME280;31738;50.188;8.524;2022-10-19T13:09:02;99731.84;;;15.86;87.78
46007;BME280;31738;50.188;8.524;2022-10-19T13:11:33;99729.66;;;15.88;87.77
46007;BME280;31738;50.188;8.524;2022-10-19T13:17:37;99725.31;;;15.87;88.42
46007;BME280;31738;50.188;8.524;2022-10-19T13:25:36;99716.34;;;15.91;88.30
46007;BME280;31738;50.188;8.524;2022-10-19T13:36:11;99695.53;;;15.92;88.67
46007;BME280;31738;50.188;8.524;2022-10-19T13:39:11;99693.91;;;15.91;88.40
46007;BME280;31738;50.188;8.524;2022-10-19T13:41:48;99691.50;;;15.89;88.61
46007;BME280;31738;50.188;8.524;2022-10-19T13:44:35;99678.25;;;15.88;88.74
46007;BME280;31738;50.188;8.524;2022-10-19T13:53:23;99672.84;;;15.88;89.12
46007;BME280;31738;50.188;8.524;2022-10-19T14:06:37;99661.19;;;15.87;89.98
46007;BME280;31738;50.188;8.524;2022-10-19T14:09:44;99660.44;;;15.82;90.08
46007;BME280;31738;50.188;8.524;2022-10-19T14:12:33;99655.53;;;15.84;90.71
46007;BME280;31738;50.188;8.524;2022-10-19T14:15:23;99648.81;;;15.81;90.33
46007;BME280;31738;50.188;8.524;2022-10-19T14:18:00;99652.56;;;15.85;90.58
46007;BME280;31738;50.188;8.524;2022-10-19T14:20:40;99650.66;;;15.86;90.54
46007;BME280;31738;50.188;8.524;2022-10-19T14:23:24;99647.72;;;15.82;90.41
46007;BME280;31738;50.188;8.524;2022-10-19T14:26:24;99651.28;;;15.78;90.41
46007;BME280;31738;50.188;8.524;2022-10-19T14:29:00;99638.28;;;15.80;90.86
46007;BME280;31738;50.188;8.524;2022-10-19T14:31:35;99641.72;;;15.85;90.60
46007;BME280;31738;50.188;8.524;2022-10-19T14:34:14;99633.31;;;15.87;90.72
46007;BME280;31738;50.188;8.524;2022-10-19T14:37:33;99632.28;;;15.83;91.31
46007;BME280;31738;50.188;8.524;2022-10-19T14:43:19;99617.16;;;15.82;91.41
46007;BME280;31738;50.188;8.524;2022-10-19T14:46:14;99618.75;;;15.83;91.37
46007;BME280;31738;50.188;8.524;2022-10-19T14:48:50;99617.91;;;15.87;91.68
46007;BME280;31738;50.188;8.524;2022-10-19T14:51:56;99618.19;;;15.86;91.97
46007;BME280;31738;50.188;8.524;2022-10-19T14:54:47;99613.88;;;15.85;92.46
46007;BME280;31738;50.188;8.524;2022-10-19T14:57:34;99618.19;;;15.86;91.98
46007;BME280;31738;50.188;8.524;2022-10-19T15:00:10;99623.31;;;15.87;92.08
46007;BME280;31738;50.188;8.524;2022-10-19T15:02:47;99615.47;;;15.86;91.80
46007;BME280;31738;50.188;8.524;2022-10-19T15:05:29;99619.59;;;15.83;91.84
46007;BME280;31738;50.188;8.524;2022-10-19T15:08:29;99615.59;;;15.76;91.70
46007;BME280;31738;50.188;8.524;2022-10-19T15:11:03;99615.03;;;15.79;91.79
46007;BME280;31738;50.188;8.524;2022-10-19T15:13:59;99607.19;;;15.77;91.81
46007;BME280;31738;50.188;8.524;2022-10-19T15:22:19;99599.38;;;15.76;91.96
46007;BME280;31738;50.188;8.524;2022-10-19T15:27:44;99591.75;;;15.78;91.82
46007;BME280;31738;50.188;8.524;2022-10-19T15:30:25;99582.84;;;15.77;91.90
46007;BME280;31738;50.188;8.524;2022-10-19T15:35:37;99576.09;;;15.75;91.86
46007;BME280;31738;50.188;8.524;2022-10-19T15:40:54;99575.59;;;15.73;92.14
46007;BME280;31738;50.188;8.524;2022-10-19T15:48:46;99568.59;;;15.67;92.10
46007;BME280;31738;50.188;8.524;2022-10-19T15:54:03;99568.59;;;15.67;92.84
46007;BME280;31738;50.188;8.524;2022-10-19T15:56:33;99565.88;;;15.67;93.17
46007;BME280;31738;50.188;8.524;2022-10-19T15:59:40;99567.81;;;15.32;93.86
46007;BME280;31738;50.188;8.524;2022-10-19T16:02:21;99561.03;;;15.35;94.19
46007;BME280;31738;50.188;8.524;2022-10-19T16:05:00;99552.91;;;15.40;94.00
46007;BME280;31738;50.188;8.524;2022-10-19T16:07:32;99553.19;;;15.38;93.81
46007;BME280;31738;50.188;8.524;2022-10-19T16:10:03;99543.44;;;15.37;93.82